CheckWX is a tool to help pilots better visualize weather data.  It is not intended as a substitute for an official pre-flight weather briefing.

08:34:23 UTC

KDNL TAF
Daniel Field Airport
Augusta, Georgia, USA
KDNL 190532Z 1906/2006 VRB04KT P6SM SCT250 FM191400 18008KT P6SM SCT050 FM200000 18005KT P6SM FEW250

May-19@
06:00 UTC

May-19 @ 06:00 UTC

May-19@
14:00 UTC

May-19 @ 14:00 UTC

KDNL 190532Z 1906/2006 VRB04KT P6SM SCT250
Wind
  • Variable at 4 KTS
Cloud Levels
  • Scattered at 25,000' AGL

May-19@
14:00 UTC

May-19 @ 14:00 UTC

May-20@
00:00 UTC

May-20 @ 00:00 UTC

FM191400 18008KT P6SM SCT050

From

From Standard forecast or significant change

Wind
  • 180° at 8 KTS
Cloud Levels
  • Scattered at 5,000' AGL

May-20@
00:00 UTC

May-20 @ 00:00 UTC

May-20@
06:00 UTC

May-20 @ 06:00 UTC

FM200000 18005KT P6SM FEW250

From

From Standard forecast or significant change

Wind
  • 180° at 5 KTS
Cloud Levels
  • Few at 25,000' AGL